Time;durP1;ratioP1;P1;durP2;ratioP2;P2;SDS_P1;SDS_P2;PMS_P1;PMS_P2;Temp;Humidity;BMP_temperature;BMP_pressure;BME280_temperature;BME280_humidity;BME280_pressure;Samples;Min_cycle;Max_cycle;Signal;HPM_P1;HPM_P2
2023/08/22 00:02:10;;;;;;;;;1.00;1.00;;;;;26.13;40.87;101569.69;4956946;28;47998;-42
2023/08/22 00:04:36;;;;;;;;;1.50;0.75;;;;;26.14;40.47;101567.88;4956400;28;55709;-47
2023/08/22 00:07:01;;;;;;;;;1.25;1.25;;;;;26.12;40.71;101565.34;4957339;28;45308;-48
2023/08/22 00:09:27;;;;;;;;;2.00;2.00;;;;;26.09;41.10;101565.50;4956941;28;45259;-46
2023/08/22 00:11:52;;;;;;;;;1.75;1.75;;;;;26.08;41.10;101571.75;4956819;28;45609;-37
2023/08/22 00:14:17;;;;;;;;;1.50;1.50;;;;;26.07;40.97;101572.75;4939461;28;46018;-36
2023/08/22 00:16:43;;;;;;;;;1.00;1.00;;;;;26.07;41.11;101570.09;4956129;28;47976;-35
2023/08/22 00:19:08;;;;;;;;;0.25;0.25;;;;;26.06;40.66;101563.91;4939454;28;45476;-40
2023/08/22 00:21:34;;;;;;;;;0.50;0.50;;;;;26.07;41.30;101572.75;4957346;28;45421;-36
2023/08/22 00:23:59;;;;;;;;;1.00;1.00;;;;;26.06;41.21;101549.78;4956655;28;46550;-39
2023/08/22 00:26:24;;;;;;;;;2.00;0.25;;;;;26.06;41.17;101561.25;4956784;28;45362;-36
2023/08/22 00:28:50;;;;;;;;;2.00;2.00;;;;;26.04;40.95;101564.97;4956102;28;48673;-36
2023/08/22 00:31:15;;;;;;;;;1.00;1.00;;;;;26.05;40.87;101564.88;4956861;28;45334;-38
2023/08/22 00:33:40;;;;;;;;;1.00;0.50;;;;;26.06;41.08;101560.41;4955932;28;55530;-38
2023/08/22 00:36:06;;;;;;;;;0.75;0.75;;;;;26.04;41.04;101557.84;4956064;28;61588;-41
2023/08/22 00:38:31;;;;;;;;;0.50;0.50;;;;;26.03;41.22;101563.28;4957043;28;45324;-38
2023/08/22 00:40:56;;;;;;;;;1.00;1.00;;;;;26.03;41.03;101568.59;4956615;28;45712;-38
2023/08/22 00:43:22;;;;;;;;;1.75;1.00;;;;;26.02;41.42;101570.38;4938961;28;47226;-35
2023/08/22 00:45:47;;;;;;;;;4.00;1.00;;;;;26.00;41.22;101558.16;4956077;28;45263;-41
2023/08/22 00:48:14;;;;;;;;;1.00;1.00;;;;;26.00;41.82;101560.81;4956410;28;45341;-37
2023/08/22 00:50:39;;;;;;;;;2.00;1.00;;;;;25.98;41.39;101562.72;4956478;28;45348;-38
2023/08/22 00:53:04;;;;;;;;;1.00;1.00;;;;;25.99;41.50;101559.13;4939172;28;46060;-36
2023/08/22 00:55:30;;;;;;;;;2.00;1.00;;;;;25.96;41.46;101560.19;4956703;28;45281;-36
2023/08/22 00:57:56;;;;;;;;;2.25;1.00;;;;;25.96;41.59;101560.19;4956216;28;45303;-38
2023/08/22 01:00:21;;;;;;;;;4.00;1.00;;;;;25.95;41.61;101557.63;4959002;28;45491;-39
2023/08/22 01:02:46;;;;;;;;;2.00;2.00;;;;;25.93;41.69;101555.94;4959261;28;46193;-39
2023/08/22 01:05:12;;;;;;;;;1.00;1.00;;;;;25.92;41.66;101551.56;4959676;28;45541;-38
2023/08/22 01:07:55;;;;;;;;;2.00;0.75;;;;;25.93;41.88;101547.09;4941982;28;45358;-37
2023/08/22 01:10:35;;;;;;;;;2.00;1.00;;;;;25.91;41.98;101547.22;4942417;28;45256;-37
2023/08/22 01:13:14;;;;;;;;;1.50;1.50;;;;;25.91;41.84;101552.53;4959702;28;45719;-41
2023/08/22 01:15:41;;;;;;;;;1.00;1.00;;;;;25.90;41.86;101545.50;4959407;28;45271;-39
2023/08/22 01:18:07;;;;;;;;;1.25;0.50;;;;;25.89;42.27;101549.13;4959341;28;45205;-38
2023/08/22 01:20:33;;;;;;;;;1.00;1.00;;;;;25.89;42.16;101554.44;4959982;28;45572;-39
2023/08/22 01:22:59;;;;;;;;;1.00;1.00;;;;;25.87;42.00;101551.00;4959030;28;46384;-40
2023/08/22 01:25:29;;;;;;;;;1.00;1.00;;;;;25.88;41.75;101542.09;4959294;28;46012;-43
2023/08/22 01:28:14;;;;;;;;;1.00;1.00;;;;;25.87;42.05;101534.25;4959218;28;45355;-40
2023/08/22 01:30:57;;;;;;;;;1.50;1.00;;;;;25.86;41.85;101537.84;4959324;28;45208;-42
2023/08/22 01:33:30;;;;;;;;;1.00;1.00;;;;;25.84;41.90;101524.69;4959132;28;46695;-47
2023/08/22 01:35:56;;;;;;;;;1.25;1.00;;;;;25.84;41.77;101522.03;4958896;28;45286;-45
2023/08/22 01:38:23;;;;;;;;;1.25;1.00;;;;;25.84;42.05;101518.50;4959341;28;45346;-39
2023/08/22 01:40:50;;;;;;;;;0.75;0.75;;;;;25.84;42.13;101535.31;4959201;28;45442;-48
2023/08/22 01:43:15;;;;;;;;;2.00;1.00;;;;;25.83;41.98;101524.78;4958988;28;46314;-39
2023/08/22 01:45:41;;;;;;;;;1.50;1.50;;;;;25.83;41.79;101527.44;4958832;28;45255;-36
2023/08/22 01:48:06;;;;;;;;;1.00;1.00;;;;;25.81;42.15;101513.41;4958960;28;45258;-36
2023/08/22 01:50:32;;;;;;;;;2.00;0.25;;;;;25.80;41.96;101506.41;4959586;28;45585;-37
2023/08/22 01:53:00;;;;;;;;;1.00;1.00;;;;;25.80;41.94;101527.66;4958472;28;46921;-40
2023/08/22 01:55:25;;;;;;;;;2.00;2.00;;;;;25.78;42.45;101518.00;4958923;28;45289;-41
2023/08/22 01:57:50;;;;;;;;;1.00;1.00;;;;;25.78;42.20;101510.03;4958713;28;45274;-46
2023/08/22 02:00:16;;;;;;;;;1.00;1.00;;;;;25.77;41.92;101515.41;4959011;28;45533;-45
2023/08/22 02:02:41;;;;;;;;;2.75;1.00;;;;;25.77;42.18;101502.13;4958432;28;47261;-45
2023/08/22 02:05:07;;;;;;;;;3.00;0.25;;;;;25.75;41.89;101512.88;4958692;28;45363;-48
2023/08/22 02:07:34;;;;;;;;;2.00;2.00;;;;;25.76;41.89;101495.13;4959222;28;45451;-36
2023/08/22 02:09:59;;;;;;;;;1.00;1.00;;;;;25.74;42.09;101497.91;4958810;28;45376;-38
2023/08/22 02:12:24;;;;;;;;;1.00;1.00;;;;;25.73;41.87;101496.19;4958101;28;45372;-39
2023/08/22 02:14:52;;;;;;;;;1.00;1.00;;;;;25.71;42.01;101499.91;4958353;28;45306;-36
2023/08/22 02:17:17;;;;;;;;;1.00;1.00;;;;;25.73;42.62;101495.34;4958489;28;45383;-35
2023/08/22 02:19:43;;;;;;;;;1.75;1.00;;;;;25.72;42.17;101505.09;4958600;28;45308;-38
2023/08/22 02:22:08;;;;;;;;;2.75;1.00;;;;;25.71;42.52;101515.84;4958211;28;50960;-36
2023/08/22 02:24:33;;;;;;;;;2.00;2.00;;;;;25.70;42.47;101514.97;4958510;28;46609;-35
2023/08/22 02:26:59;;;;;;;;;3.00;1.25;;;;;25.69;42.09;101515.09;4958309;28;45366;-37
2023/08/22 02:29:24;;;;;;;;;1.00;1.00;;;;;25.69;42.62;101509.78;4958752;28;45817;-39
2023/08/22 02:31:49;;;;;;;;;2.00;1.00;;;;;25.70;42.83;101511.47;4940808;28;47266;-36
2023/08/22 02:34:15;;;;;;;;;1.00;1.00;;;;;25.70;42.46;101500.88;4958200;28;45481;-42
2023/08/22 02:36:40;;;;;;;;;2.00;2.00;;;;;25.72;42.30;101504.28;4958094;28;45429;-36
2023/08/22 02:39:05;;;;;;;;;2.25;1.00;;;;;25.70;42.81;101491.09;4957943;28;54295;-36
2023/08/22 02:41:30;;;;;;;;;2.25;1.00;;;;;25.70;42.17;101491.09;4958398;28;46346;-38
2023/08/22 02:43:56;;;;;;;;;3.75;1.00;;;;;25.71;42.58;101486.63;4957791;28;45373;-36
2023/08/22 02:46:21;;;;;;;;;2.00;1.00;;;;;25.69;42.12;101483.22;4958183;28;45441;-35
2023/08/22 02:48:46;;;;;;;;;1.50;1.50;;;;;25.68;42.44;101478.88;4957914;28;45299;-38
2023/08/22 02:51:12;;;;;;;;;3.00;2.00;;;;;25.67;42.63;101482.47;4957261;28;60250;-36
2023/08/22 02:53:37;;;;;;;;;1.25;1.00;;;;;25.67;42.31;101498.41;4957491;28;50493;-39
2023/08/22 02:56:04;;;;;;;;;1.00;1.00;;;;;25.66;42.43;101491.38;4958336;28;45347;-38
2023/08/22 02:58:30;;;;;;;;;1.75;1.00;;;;;25.64;42.25;101488.84;4958372;28;45539;-38
2023/08/22 03:00:56;;;;;;;;;1.00;1.00;;;;;25.67;42.37;101490.44;4957496;28;46931;-36
2023/08/22 03:03:21;;;;;;;;;1.00;1.00;;;;;25.67;42.73;101479.81;4957777;28;45327;-37
2023/08/22 03:05:46;;;;;;;;;1.50;1.00;;;;;25.65;42.62;101482.59;4940402;28;45385;-40
2023/08/22 03:08:12;;;;;;;;;2.75;1.50;;;;;25.65;42.68;101495.00;4957565;28;48399;-38
2023/08/22 03:10:37;;;;;;;;;1.00;1.00;;;;;25.63;42.38;101489.81;4957438;28;46114;-37
2023/08/22 03:13:02;;;;;;;;;0.00;0.00;;;;;25.63;42.99;101485.31;4957944;28;45407;-43
2023/08/22 03:15:28;;;;;;;;;1.00;1.00;;;;;25.61;42.82;101481.94;4957837;28;45424;-46
2023/08/22 03:17:53;;;;;;;;;1.00;1.00;;;;;25.61;42.42;101494.34;4957176;28;45315;-35
2023/08/22 03:20:18;;;;;;;;;1.00;1.00;;;;;25.59;42.80;101493.59;4956978;28;61585;-36
2023/08/22 03:22:44;;;;;;;;;3.50;3.00;;;;;25.58;42.60;101495.41;4957182;28;45385;-34
2023/08/22 03:25:09;;;;;;;;;1.50;1.50;;;;;25.59;42.64;101497.13;4957633;28;45402;-39
2023/08/22 03:27:35;;;;;;;;;0.50;0.50;;;;;25.60;43.18;101484.69;4957532;28;45444;-37
2023/08/22 03:30:00;;;;;;;;;1.50;0.50;;;;;25.58;42.39;101478.63;4957588;28;46005;-37
2023/08/22 03:32:26;;;;;;;;;1.00;1.00;;;;;25.56;42.94;101481.41;4957370;28;45354;-41
2023/08/22 03:34:51;;;;;;;;;2.00;2.00;;;;;25.55;42.61;101471.72;4957328;28;45550;-38
2023/08/22 03:37:16;;;;;;;;;3.25;1.25;;;;;25.56;42.90;101476.09;4957662;28;45488;-36
2023/08/22 03:39:41;;;;;;;;;1.00;1.00;;;;;25.54;42.56;101475.34;4955289;28;60544;-36
2023/08/22 03:42:07;;;;;;;;;0.00;0.00;;;;;25.55;42.97;101478.84;4956928;28;55502;-35
2023/08/22 03:44:32;;;;;;;;;2.75;1.00;;;;;25.52;42.76;101482.53;4957227;28;56901;-36
2023/08/22 03:46:57;;;;;;;;;2.75;1.00;;;;;25.52;43.02;101487.00;4957178;28;45296;-44
2023/08/22 03:49:23;;;;;;;;;1.75;1.75;;;;;25.51;42.65;101486.19;4956853;28;45428;-45
2023/08/22 03:51:48;;;;;;;;;3.50;2.00;;;;;25.50;42.84;101484.47;4956892;28;45330;-40
2023/08/22 03:54:13;;;;;;;;;2.25;1.75;;;;;25.50;42.95;101495.09;4957162;28;45263;-42
2023/08/22 03:56:38;;;;;;;;;1.00;1.00;;;;;25.50;42.85;101495.09;4957130;28;45222;-39
2023/08/22 03:59:04;;;;;;;;;2.50;2.00;;;;;25.49;43.07;101490.72;4956855;28;57917;-39
2023/08/22 04:01:29;;;;;;;;;2.00;1.00;;;;;25.50;43.32;101484.47;4957131;28;45312;-43
2023/08/22 04:03:57;;;;;;;;;1.00;1.00;;;;;25.48;42.64;101481.06;4956855;28;45356;-40
2023/08/22 04:06:22;;;;;;;;;2.00;2.00;;;;;25.47;43.08;101490.81;4957273;28;45328;-36
2023/08/22 04:08:48;;;;;;;;;2.00;2.00;;;;;25.47;42.97;101488.16;4956035;28;59886;-41
2023/08/22 04:11:13;;;;;;;;;1.75;1.75;;;;;25.47;43.03;101485.50;4956171;28;61572;-36
2023/08/22 04:13:38;;;;;;;;;2.50;1.50;;;;;25.46;43.34;101483.84;4955996;28;60532;-37
2023/08/22 04:16:04;;;;;;;;;1.00;1.00;;;;;25.45;43.31;101491.88;4957267;28;45482;-37
2023/08/22 04:18:30;;;;;;;;;1.00;1.00;;;;;25.42;43.23;101490.28;4956848;28;46467;-35
2023/08/22 04:20:55;;;;;;;;;0.75;0.75;;;;;25.42;43.27;101492.06;4956516;28;45412;-37
2023/08/22 04:23:20;;;;;;;;;2.50;2.00;;;;;25.43;43.10;101488.47;4956882;28;45468;-38
2023/08/22 04:25:46;;;;;;;;;2.00;1.00;;;;;25.44;43.24;101491.03;4956775;28;45330;-37
2023/08/22 04:28:11;;;;;;;;;2.75;2.75;;;;;25.43;43.05;101491.13;4955998;28;58320;-40
2023/08/22 04:30:36;;;;;;;;;1.50;1.50;;;;;25.44;43.54;101493.69;4956448;28;45417;-35
2023/08/22 04:33:02;;;;;;;;;1.75;1.00;;;;;25.45;43.03;101505.16;4957020;28;45319;-36
2023/08/22 04:35:28;;;;;;;;;1.50;1.50;;;;;25.43;43.58;101499.09;4959699;28;45208;-36
2023/08/22 04:37:53;;;;;;;;;1.25;1.25;;;;;25.43;43.28;101493.78;4959706;28;46080;-35
2023/08/22 04:40:18;;;;;;;;;3.00;1.75;;;;;25.44;43.63;101495.47;4959626;28;55821;-36
2023/08/22 04:42:44;;;;;;;;;1.00;1.00;;;;;25.42;43.62;101487.63;4959929;28;45311;-36
2023/08/22 04:45:09;;;;;;;;;2.00;1.00;;;;;25.40;43.02;101480.69;4959761;28;50860;-36
2023/08/22 04:47:35;;;;;;;;;3.00;1.75;;;;;25.38;43.27;101486.09;4959355;28;46074;-35
2023/08/22 04:50:00;;;;;;;;;1.00;1.00;;;;;25.39;43.57;101489.59;4960027;28;45299;-35
2023/08/22 04:52:25;;;;;;;;;2.50;1.75;;;;;25.40;43.74;101491.31;4959891;28;45231;-35
2023/08/22 04:54:51;;;;;;;;;1.75;1.75;;;;;25.41;43.31;101493.06;4959789;28;45405;-38
2023/08/22 04:57:16;;;;;;;;;0.75;0.75;;;;;25.42;43.75;101494.72;4959085;28;62646;-35
2023/08/22 04:59:41;;;;;;;;;2.00;2.00;;;;;25.42;43.68;101489.41;4959425;28;45195;-38
2023/08/22 05:02:07;;;;;;;;;0.50;0.50;;;;;25.44;43.92;101499.00;4959515;28;50292;-38
2023/08/22 05:04:32;;;;;;;;;1.00;1.00;;;;;25.44;43.48;101495.47;4960065;28;45599;-37
2023/08/22 05:06:57;;;;;;;;;1.25;1.25;;;;;25.44;43.58;101503.44;4959175;28;45470;-36
2023/08/22 05:09:23;;;;;;;;;2.00;1.00;;;;;25.45;43.21;101508.66;4959470;28;45385;-36
2023/08/22 05:11:49;;;;;;;;;2.00;2.00;;;;;25.45;43.36;101502.50;4959461;28;45274;-35
2023/08/22 05:14:14;;;;;;;;;3.25;1.00;;;;;25.45;43.81;101507.81;4959912;28;45859;-35
2023/08/22 05:16:41;;;;;;;;;2.00;2.00;;;;;25.45;43.29;101513.09;4958924;28;46353;-36
2023/08/22 05:19:06;;;;;;;;;2.00;2.00;;;;;25.45;43.56;101502.50;4959364;28;45465;-36
2023/08/22 05:21:32;;;;;;;;;1.00;1.00;;;;;25.46;43.65;101512.16;4959852;28;45389;-36
2023/08/22 05:23:57;;;;;;;;;2.25;1.50;;;;;25.47;43.49;101516.50;4941871;28;45350;-37
2023/08/22 05:26:22;;;;;;;;;1.50;1.50;;;;;25.47;43.18;101517.34;4959348;28;46163;-38
2023/08/22 05:28:48;;;;;;;;;2.00;2.00;;;;;25.47;43.51;101517.34;4958944;28;45414;-37
2023/08/22 05:31:20;;;;;;;;;3.00;1.50;;;;;25.49;43.47;101514.63;4959320;28;45342;-40
2023/08/22 05:33:45;;;;;;;;;3.75;2.25;;;;;25.49;43.27;101514.63;4959314;28;45380;-40
2023/08/22 05:36:11;;;;;;;;;2.00;2.00;;;;;25.49;43.23;101519.94;4959165;28;45421;-36
2023/08/22 05:38:36;;;;;;;;;1.25;1.25;;;;;25.49;43.32;101522.56;4957840;28;63823;-37
2023/08/22 05:41:02;;;;;;;;;2.00;2.00;;;;;25.50;43.53;101526.94;4959640;28;45362;-40
2023/08/22 05:43:27;;;;;;;;;1.00;1.00;;;;;25.51;43.53;101533.94;4959362;28;45268;-36
2023/08/22 05:45:53;;;;;;;;;2.75;2.25;;;;;25.50;43.37;101537.56;4957387;28;46289;-48
2023/08/22 05:48:18;;;;;;;;;1.25;1.25;;;;;25.50;43.28;101526.06;4941091;28;56439;-42
2023/08/22 05:50:43;;;;;;;;;1.00;1.00;;;;;25.50;43.46;101518.97;4958669;28;45372;-40
2023/08/22 05:53:08;;;;;;;;;0.25;0.25;;;;;25.50;43.58;101521.63;4959221;28;45647;-43
2023/08/22 05:55:34;;;;;;;;;2.75;2.00;;;;;25.49;43.52;101519.94;4958747;28;56819;-44
2023/08/22 05:57:59;;;;;;;;;2.00;2.00;;;;;25.50;43.02;101531.38;4959091;28;45328;-48
2023/08/22 06:00:25;;;;;;;;;2.00;2.00;;;;;25.50;43.58;101532.25;4959076;28;45311;-46
2023/08/22 06:02:50;;;;;;;;;2.00;2.00;;;;;25.50;43.32;101526.94;4958245;28;50374;-43
2023/08/22 06:05:15;;;;;;;;;2.00;1.75;;;;;25.49;43.27;101530.53;4958847;28;45247;-45
2023/08/22 06:07:40;;;;;;;;;5.00;1.75;;;;;25.52;43.69;101540.09;4958593;28;45326;-39
2023/08/22 06:10:06;;;;;;;;;2.00;2.00;;;;;25.51;43.73;101549.88;4958303;28;56460;-35
2023/08/22 06:12:31;;;;;;;;;2.00;2.00;;;;;25.55;43.73;101550.53;4959312;28;45248;-37
2023/08/22 06:14:57;;;;;;;;;1.50;1.00;;;;;25.58;43.55;101553.81;4958341;28;45401;-36
2023/08/22 06:17:22;;;;;;;;;3.00;1.25;;;;;25.62;44.04;101557.13;4958491;28;45362;-36
2023/08/22 06:19:50;;;;;;;;;2.75;2.00;;;;;25.64;43.79;101557.88;4958574;28;45222;-36
2023/08/22 06:22:15;;;;;;;;;3.00;1.50;;;;;25.67;43.70;101570.09;4941316;28;45489;-40
2023/08/22 06:24:41;;;;;;;;;3.25;2.00;;;;;25.69;43.97;101574.34;4941578;28;47312;-37
2023/08/22 06:27:06;;;;;;;;;3.25;2.75;;;;;25.70;43.53;101576.03;4941376;28;46227;-40
2023/08/22 06:29:32;;;;;;;;;2.00;2.00;;;;;25.72;43.49;101575.97;4958718;28;45390;-37
2023/08/22 06:32:00;;;;;;;;;1.00;1.00;;;;;25.74;43.61;101568.75;4958199;28;45572;-39
2023/08/22 06:34:26;;;;;;;;;3.50;1.75;;;;;25.76;43.59;101574.78;4957883;28;46174;-41
2023/08/22 06:36:51;;;;;;;;;3.00;2.00;;;;;25.75;43.76;101570.41;4957925;28;45693;-37
2023/08/22 06:39:17;;;;;;;;;2.00;2.00;;;;;25.76;43.69;101569.47;4940624;28;45913;-36
2023/08/22 06:41:42;;;;;;;;;1.75;1.75;;;;;25.78;43.68;101567.56;4958150;28;45561;-37
2023/08/22 06:44:09;;;;;;;;;1.50;1.50;;;;;25.79;43.68;101561.31;4957266;28;59151;-37
2023/08/22 06:46:37;;;;;;;;;2.00;2.00;;;;;25.81;43.75;101562.06;4958990;28;45458;-35
2023/08/22 06:49:03;;;;;;;;;1.75;1.00;;;;;25.82;43.80;101565.56;4959052;28;45238;-39
2023/08/22 06:51:29;;;;;;;;;5.00;3.00;;;;;25.83;43.53;101565.47;4958893;28;45309;-38
2023/08/22 06:53:54;;;;;;;;;3.00;3.00;;;;;25.82;43.67;101561.13;4958470;28;45435;-45
2023/08/22 06:56:19;;;;;;;;;2.00;2.00;;;;;25.84;43.67;101553.91;4940714;28;50723;-44
2023/08/22 06:58:45;;;;;;;;;5.50;1.50;;;;;25.85;43.58;101563.53;4958210;28;45243;-43
2023/08/22 07:01:10;;;;;;;;;3.75;2.25;;;;;25.86;43.55;101573.22;4958812;28;45331;-48
2023/08/22 07:03:35;;;;;;;;;4.00;2.00;;;;;25.88;43.63;101567.81;4958399;28;49919;-38
2023/08/22 07:06:01;;;;;;;;;1.75;1.25;;;;;25.88;43.50;101568.66;4958334;28;45334;-39
2023/08/22 07:08:27;;;;;;;;;2.00;2.00;;;;;25.88;43.21;101576.63;4958402;28;45207;-37
2023/08/22 07:10:59;;;;;;;;;3.50;2.00;;;;;25.86;43.53;101577.69;4958523;28;45252;-37
2023/08/22 07:13:24;;;;;;;;;2.50;2.00;;;;;25.89;43.82;101569.53;4958141;28;46211;-41
2023/08/22 07:15:49;;;;;;;;;2.00;2.00;;;;;25.89;43.90;101570.34;4957952;28;46726;-40
2023/08/22 07:18:15;;;;;;;;;2.00;2.00;;;;;25.91;43.77;101576.44;4958353;28;45355;-41
2023/08/22 07:20:40;;;;;;;;;3.25;1.75;;;;;25.90;43.99;101577.38;4958064;28;45622;-43
2023/08/22 07:23:05;;;;;;;;;2.00;2.00;;;;;25.92;43.63;101577.25;4957874;28;58471;-41
2023/08/22 07:25:30;;;;;;;;;3.00;2.25;;;;;25.95;43.59;101578.88;4957645;28;56395;-39
2023/08/22 07:27:56;;;;;;;;;4.00;3.00;;;;;25.95;43.90;101578.88;4957665;28;51721;-44
2023/08/22 07:30:21;;;;;;;;;2.00;2.00;;;;;25.95;43.39;101574.41;4958183;28;45429;-39
2023/08/22 07:32:46;;;;;;;;;6.50;3.00;;;;;25.95;43.23;101565.59;4957664;28;47779;-36
2023/08/22 07:35:12;;;;;;;;;2.00;2.00;;;;;25.96;43.53;101565.50;4940573;28;45363;-36
2023/08/22 07:37:37;;;;;;;;;3.25;3.00;;;;;25.96;43.49;101565.50;4958287;28;45409;-36
2023/08/22 07:40:04;;;;;;;;;3.00;2.25;;;;;25.97;43.46;101561.88;4958010;28;45539;-36
2023/08/22 07:42:30;;;;;;;;;6.00;2.50;;;;;25.99;43.34;101569.72;4940193;28;47573;-38
2023/08/22 07:44:55;;;;;;;;;8.50;3.25;;;;;25.98;43.50;101568.03;4957737;28;45393;-38
2023/08/22 07:47:20;;;;;;;;;6.00;3.00;;;;;26.00;43.50;101572.31;4957808;28;45401;-37
2023/08/22 07:49:46;;;;;;;;;2.50;2.50;;;;;26.01;43.38;101575.81;4957267;28;51729;-38
2023/08/22 07:52:11;;;;;;;;;3.00;1.25;;;;;26.02;43.74;101577.50;4956991;28;61363;-37
2023/08/22 07:54:36;;;;;;;;;5.00;3.00;;;;;26.03;43.30;101576.56;4957933;28;45394;-39
2023/08/22 07:57:01;;;;;;;;;3.00;2.50;;;;;26.03;43.77;101580.03;4957573;28;45417;-38
2023/08/22 07:59:27;;;;;;;;;4.00;3.00;;;;;26.04;43.60;101580.91;4957887;28;45588;-39
2023/08/22 08:01:53;;;;;;;;;2.75;2.75;;;;;26.04;43.38;101584.41;4957007;28;59481;-37
2023/08/22 08:04:18;;;;;;;;;4.00;4.00;;;;;26.05;43.53;101590.59;4957516;28;45266;-42
2023/08/22 08:06:46;;;;;;;;;3.00;3.00;;;;;26.07;43.40;101586.03;4957699;28;45494;-40
2023/08/22 08:09:11;;;;;;;;;2.50;2.50;;;;;26.08;43.29;101593.00;4956710;28;45460;-37
2023/08/22 08:11:36;;;;;;;;;2.25;2.25;;;;;26.08;43.42;101593.00;4957517;28;46078;-44
2023/08/22 08:14:02;;;;;;;;;3.00;2.00;;;;;26.08;43.54;101591.22;4957381;28;45568;-43
2023/08/22 08:16:27;;;;;;;;;2.00;2.00;;;;;26.09;43.36;101597.38;4957320;28;45447;-45
2023/08/22 08:18:53;;;;;;;;;3.75;3.00;;;;;26.10;43.40;101591.16;4957482;28;45433;-45
2023/08/22 08:21:19;;;;;;;;;4.00;4.00;;;;;26.11;43.38;101586.69;4957251;28;45987;-43
2023/08/22 08:23:44;;;;;;;;;2.00;2.00;;;;;26.12;42.95;101585.75;4957267;28;45439;-40
2023/08/22 08:26:14;;;;;;;;;3.00;3.00;;;;;26.12;43.25;101581.28;4957605;28;45322;-41
2023/08/22 08:28:39;;;;;;;;;4.25;2.00;;;;;26.14;43.52;101592.66;4957658;28;45238;-35
2023/08/22 08:31:06;;;;;;;;;1.00;1.00;;;;;26.13;43.47;101588.28;4956869;28;51684;-36
2023/08/22 08:33:31;;;;;;;;;4.00;2.00;;;;;26.16;43.04;101592.53;4957112;28;45232;-41
2023/08/22 18:39:45;;;;;;;;;6.50;6.25;;;;;27.10;43.73;101354.56;5882081;23;45891;-38
2023/08/22 18:42:12;;;;;;;;;7.50;6.25;;;;;27.10;43.95;101349.25;4958833;28;45282;-39
2023/08/22 18:44:37;;;;;;;;;6.75;6.75;;;;;27.11;43.97;101358.91;4959031;28;45353;-38
2023/08/22 18:47:02;;;;;;;;;5.00;5.00;;;;;27.11;43.95;101364.25;4956483;28;61093;-39
2023/08/22 18:49:28;;;;;;;;;6.75;5.75;;;;;27.11;44.03;101363.41;4958224;28;45421;-36
2023/08/22 18:51:53;;;;;;;;;8.50;5.75;;;;;27.11;43.89;101356.25;4957994;28;45406;-40
2023/08/22 18:54:19;;;;;;;;;6.00;6.00;;;;;27.11;44.02;101364.25;4957763;28;45232;-39
2023/08/22 18:56:44;;;;;;;;;7.25;6.00;;;;;27.13;44.18;101364.97;4957759;28;46412;-42
2023/08/22 18:59:09;;;;;;;;;5.00;5.00;;;;;27.13;44.29;101369.44;4958062;28;45333;-41
2023/08/22 19:01:37;;;;;;;;;8.00;7.25;;;;;27.14;44.38;101372.00;4957686;28;45315;-45
2023/08/22 19:04:02;;;;;;;;;8.25;5.75;;;;;27.14;44.17;101371.13;4958265;28;45520;-45
2023/08/22 19:06:27;;;;;;;;;7.00;7.00;;;;;27.13;44.71;101372.09;4956675;28;48176;-42
2023/08/22 19:08:55;;;;;;;;;7.00;7.00;;;;;27.13;44.60;101374.75;4957878;28;45739;-37
2023/08/22 19:11:21;;;;;;;;;12.25;8.00;;;;;27.13;44.60;101380.06;4957896;28;45377;-40
2023/08/22 19:13:46;;;;;;;;;6.75;5.00;;;;;27.14;44.66;101379.97;4958058;28;45676;-37
2023/08/22 19:16:11;;;;;;;;;5.75;5.75;;;;;27.14;44.57;101382.66;4956379;28;47980;-43
2023/08/22 19:18:36;;;;;;;;;6.50;6.00;;;;;27.13;44.29;101386.25;4957575;28;45413;-41
2023/08/22 19:21:02;;;;;;;;;7.75;7.25;;;;;27.13;44.44;101388.94;4957556;28;50117;-44
2023/08/22 19:23:27;;;;;;;;;6.50;5.50;;;;;27.14;44.33;101398.59;4957971;28;45572;-41
2023/08/22 19:25:52;;;;;;;;;7.25;5.50;;;;;27.13;44.51;101399.56;4957510;28;45479;-42
2023/08/22 19:28:18;;;;;;;;;8.00;6.00;;;;;27.14;44.85;101403.06;4957637;28;45301;-42
2023/08/22 19:30:43;;;;;;;;;4.50;4.50;;;;;27.14;44.39;101397.75;4957341;28;45581;-39
2023/08/22 19:33:08;;;;;;;;;9.00;7.00;;;;;27.13;44.63;101396.91;4957913;28;45329;-41
2023/08/22 19:35:38;;;;;;;;;8.75;6.00;;;;;27.13;44.62;101404.88;4956929;28;50168;-38
2023/08/22 19:38:04;;;;;;;;;6.00;6.00;;;;;27.13;44.36;101399.56;4957475;28;45604;-46
2023/08/22 19:40:29;;;;;;;;;7.00;7.00;;;;;27.14;44.54;101398.59;4957464;28;45512;-47
2023/08/22 19:42:55;;;;;;;;;7.25;6.75;;;;;27.13;44.75;101396.91;4957254;28;45417;-39
2023/08/22 19:45:20;;;;;;;;;6.50;5.75;;;;;27.13;44.61;101407.56;4957222;28;46112;-41
2023/08/22 19:47:45;;;;;;;;;6.00;6.00;;;;;27.13;44.62;101406.69;4957043;28;45384;-43
2023/08/22 19:50:11;;;;;;;;;4.00;4.00;;;;;27.13;44.27;101420.84;4957491;28;45620;-45
2023/08/22 19:52:37;;;;;;;;;7.25;7.25;;;;;27.13;44.51;101426.19;4957382;28;45656;-41
2023/08/22 19:55:04;;;;;;;;;5.50;5.50;;;;;27.13;44.37;101428.84;4956027;28;47421;-39
2023/08/22 19:57:30;;;;;;;;;7.25;6.00;;;;;27.13;44.38;101426.19;4957247;28;45679;-41
2023/08/22 19:59:55;;;;;;;;;10.75;5.00;;;;;27.14;44.53;101419.91;4957162;28;45370;-47
2023/08/22 20:02:21;;;;;;;;;9.00;7.00;;;;;27.13;44.94;101423.50;4957335;28;45660;-41
2023/08/22 20:04:46;;;;;;;;;6.00;6.00;;;;;27.13;44.69;101439.47;4955817;28;45988;-41
2023/08/22 20:07:11;;;;;;;;;9.50;6.50;;;;;27.14;44.57;101435.84;4957077;28;45642;-45
2023/08/22 20:09:37;;;;;;;;;6.25;5.75;;;;;27.14;44.64;101429.66;4956919;28;45388;-43
2023/08/22 20:12:02;;;;;;;;;6.25;5.25;;;;;27.14;44.57;101438.53;4956307;28;45529;-38
2023/08/22 20:14:28;;;;;;;;;6.75;6.25;;;;;27.15;44.45;101442.00;4956905;28;45445;-44
2023/08/22 20:16:53;;;;;;;;;9.50;7.00;;;;;27.13;44.57;101450.13;4956967;28;45282;-45
2023/08/22 20:19:18;;;;;;;;;7.25;5.00;;;;;27.13;44.68;101459.91;4957096;28;45326;-39
2023/08/22 20:21:44;;;;;;;;;10.50;7.50;;;;;27.15;44.05;101457.97;4956789;28;45343;-37
2023/08/22 20:24:09;;;;;;;;;8.00;7.00;;;;;27.13;44.56;101458.09;4956787;28;46922;-40
2023/08/22 20:26:39;;;;;;;;;9.00;6.75;;;;;27.13;44.51;101468.75;4956255;28;52010;-42
2023/08/22 20:29:04;;;;;;;;;5.00;5.00;;;;;27.13;44.49;101466.09;4956965;28;45405;-43
2023/08/22 20:31:29;;;;;;;;;5.00;5.00;;;;;27.14;44.20;101459.81;4938891;28;57200;-41
2023/08/22 20:33:55;;;;;;;;;7.00;7.00;;;;;27.13;44.75;101458.09;4955552;28;45330;-38
2023/08/22 20:36:20;;;;;;;;;7.00;7.00;;;;;27.14;44.61;101462.47;4956427;28;55708;-36
2023/08/22 20:38:45;;;;;;;;;7.00;5.75;;;;;27.13;44.78;101466.09;4956569;28;45341;-43
2023/08/22 20:41:10;;;;;;;;;6.00;6.00;;;;;27.14;44.61;101464.25;4956387;28;47542;-47
2023/08/22 20:43:36;;;;;;;;;7.25;6.50;;;;;27.13;44.70;101455.44;4955656;28;62116;-41
2023/08/22 20:46:02;;;;;;;;;7.00;6.00;;;;;27.13;44.16;101455.44;4956463;28;59947;-40
2023/08/22 20:48:28;;;;;;;;;6.00;5.00;;;;;27.14;44.70;101459.81;4956560;28;45312;-37
2023/08/22 20:50:53;;;;;;;;;5.25;5.25;;;;;27.13;44.38;101460.75;4956800;28;45260;-38
2023/08/22 20:53:19;;;;;;;;;6.25;6.25;;;;;27.13;44.58;101460.75;4939269;28;48275;-40
2023/08/22 20:55:48;;;;;;;;;8.00;6.00;;;;;27.13;44.79;101463.44;4956354;28;45456;-45
2023/08/22 20:58:13;;;;;;;;;5.50;5.50;;;;;27.13;44.63;101471.41;4956665;28;45327;-47
2023/08/22 21:00:38;;;;;;;;;4.00;4.00;;;;;27.13;44.54;101466.09;4956555;28;45440;-46
2023/08/22 21:03:04;;;;;;;;;9.00;6.50;;;;;27.13;44.78;101471.41;4956257;28;53144;-38
2023/08/22 21:05:29;;;;;;;;;6.25;5.00;;;;;27.13;44.72;101474.06;4956469;28;45248;-42
2023/08/22 21:07:55;;;;;;;;;5.00;5.00;;;;;27.13;44.87;101476.72;4956487;28;45188;-41
2023/08/22 21:10:20;;;;;;;;;7.50;5.00;;;;;27.13;44.89;101482.06;4956502;28;45224;-38
2023/08/22 21:12:45;;;;;;;;;3.75;3.75;;;;;27.13;44.92;101474.06;4955793;28;46000;-38
2023/08/22 21:15:11;;;;;;;;;5.75;5.00;;;;;27.13;44.89;101471.41;4956284;28;45360;-44
2023/08/22 21:17:36;;;;;;;;;4.25;4.25;;;;;27.13;44.60;101476.72;4959068;28;45223;-42
2023/08/22 21:20:02;;;;;;;;;8.25;7.00;;;;;27.14;45.13;101480.22;4960170;28;45659;-41
2023/08/22 21:22:28;;;;;;;;;7.25;6.25;;;;;27.13;45.20;101476.72;4959212;28;46358;-45